الصفحة الرئيسية
METAR-TAF:

METAR-TAF

مطار :

مطار هلسنكي فانتا

هلسنكي, فنلندا

دائرة عرض: 60-19N, خط طول: 024-58E, ارتفاع: 51 متر

مراقبة الطقس الحالي

تاريخ ووقت الإصدار 16 دقيقة قبل الساعة 00:20UTC
ريح 1 عقدةمن اتجاهات متغيرة
درجة الحرارة 10°درجة مئوية
الرطوبة 100%
ضغط 1015 hPa
الرؤية 10 كم أو أكثر
الغيوم لا تقل 1500 م ولا وجود لمزنة ركامية السحاب الأسود

METAR: EFHK 160020Z VRB01KT CAVOK 10/10 Q1015 NOSIG

زمن: 03:36 (00:36 UTC)

توقعات

تاريخ ووقت الإصدار 1ساعة و 6 دقيقة قبل الساعة 23:30UTC
التوقعات صالحة من16 الساعة 00 UTC إلى 16 الساعة 24 UTC
ريح 2 عقدة من الغرب/الجنوب الغربي
الرؤية 10 كم أو أكثر
الغيوم لا تقل 1500 م ولا وجود لمزنة ركامية السحاب الأسود
مؤقت
من 16 الساعة 00 UTC إلى 16 الساعة 04 UTC
الرؤية: 5000 متر
غشاء
أصبح
من 16 الساعة 08 UTC إلى 16 الساعة 10 UTC
ريح 10 عقدة من الجنوب
نظرية الاحتمالات 40% :
مؤقت
من 16 الساعة 08 UTC إلى 16 الساعة 11 UTC
غيوم قليلة على ارتفاع 3000 قدم, مزن ركامية عمودية.
غيوم مفككة على ارتفاع 20000 قدم

TAF: EFHK 152330Z 1600/1624 24002KT CAVOK TEMPO 1600/1604 5000 BR BECMG 1608/1610 18010KT PROB40 TEMPO 1608/1611 FEW030TCU BKN200

أرصاد الطقس والتوقعات من أكثر من 4000 مطار (تقارير الطقس للمطار METAR والتنبؤ بالطقس بالمطارTAF).

المحطات المتاحة هي النقط الصفراء والحمراء على الخريطة.

حرك المؤشر فوق النقطة لمعرفة اسم المحطة.

ثم انقر لمعرفة أرصاد وتوقعات الطقس.

لتغيير الخارطة: اضغط على الأزرار الخضراء مع رمز الصليب الأسود للتكبير. على الزر الأخضر مع شرطة للتصغير، أو على الأسهم الخضراء للخرائط المجاورة.


METAR-TAF: